createdAt,value
2019-03-01T00:01:59.761Z,99.90
2019-03-01T00:05:02.888Z,99.90
2019-03-01T00:07:58.354Z,99.90
2019-03-01T00:11:20.774Z,99.90
2019-03-01T00:14:29.543Z,99.90
2019-03-01T00:17:25.579Z,99.90
2019-03-01T00:20:39.295Z,99.90
2019-03-01T00:23:48.439Z,99.90
2019-03-01T00:26:47.181Z,99.90
2019-03-01T00:30:01.222Z,99.90
2019-03-01T00:33:00.798Z,98.20
2019-03-01T00:36:10.986Z,98.10
2019-03-01T00:39:19.287Z,99.60
2019-03-01T00:42:38.235Z,98.20
2019-03-01T00:45:07.615Z,95.90
2019-03-01T00:47:36.553Z,97.80
2019-03-01T00:50:08.796Z,96.50
2019-03-01T00:52:37.791Z,96.90
2019-03-01T00:55:06.954Z,93.70
2019-03-01T00:57:35.871Z,93.30
2019-03-01T01:00:06.385Z,92.50
2019-03-01T01:02:35.390Z,92.90
2019-03-01T01:05:05.080Z,92.70
2019-03-01T01:07:34.012Z,92.20
2019-03-01T01:10:03.248Z,92.00
2019-03-01T01:12:32.382Z,91.90
2019-03-01T01:15:01.297Z,91.30
2019-03-01T01:17:30.225Z,91.50
2019-03-01T01:19:59.170Z,91.40
2019-03-01T01:22:28.118Z,91.00
2019-03-01T01:24:57.049Z,90.60
2019-03-01T01:27:25.965Z,90.50
2019-03-01T01:29:54.800Z,90.90
2019-03-01T01:32:23.702Z,90.60
2019-03-01T01:34:52.566Z,90.80
2019-03-01T01:37:21.496Z,90.50
2019-03-01T01:39:50.443Z,90.80
2019-03-01T01:42:19.379Z,90.80
2019-03-01T01:44:48.337Z,90.90
2019-03-01T01:47:17.207Z,91.10
2019-03-01T01:49:46.235Z,91.00
2019-03-01T01:52:15.192Z,91.20
2019-03-01T01:54:44.088Z,91.50
2019-03-01T01:57:13.110Z,91.60
2019-03-01T01:59:42.103Z,91.40
2019-03-01T02:02:11.049Z,91.60
2019-03-01T02:04:40.011Z,91.60
2019-03-01T02:07:09.034Z,92.40
2019-03-01T02:09:38.608Z,92.30
2019-03-01T02:12:07.647Z,92.30
2019-03-01T02:14:36.568Z,92.30
2019-03-01T02:17:05.585Z,92.90
2019-03-01T02:19:34.576Z,93.10
2019-03-01T02:22:03.651Z,93.30
2019-03-01T02:24:32.604Z,93.80
2019-03-01T02:27:24.004Z,93.70
2019-03-01T02:29:53.110Z,93.40
2019-03-01T02:32:30.618Z,94.00
2019-03-01T02:34:59.552Z,94.10
2019-03-01T02:37:28.554Z,94.40
2019-03-01T02:39:57.494Z,94.70
2019-03-01T02:42:26.423Z,94.50
2019-03-01T02:44:55.410Z,94.80
2019-03-01T02:47:24.439Z,94.60
2019-03-01T02:49:53.397Z,95.10
2019-03-01T02:52:22.326Z,95.50
2019-03-01T02:54:51.194Z,95.60
2019-03-01T02:57:20.219Z,95.60
2019-03-01T02:59:49.176Z,96.20
2019-03-01T03:02:18.166Z,96.10
2019-03-01T03:04:47.093Z,96.30
2019-03-01T03:07:25.304Z,96.90
2019-03-01T03:09:54.221Z,97.10
2019-03-01T03:12:23.170Z,97.60
2019-03-01T03:14:52.159Z,97.50
2019-03-01T03:17:21.110Z,97.70
2019-03-01T03:19:50.008Z,97.60
2019-03-01T03:22:19.032Z,97.80
2019-03-01T03:24:48.001Z,98.30
2019-03-01T03:27:16.928Z,98.50
2019-03-01T03:29:45.978Z,98.80
2019-03-01T03:32:14.968Z,99.00
2019-03-01T03:34:43.948Z,99.20
2019-03-01T03:37:12.886Z,99.40
2019-03-01T03:39:41.835Z,99.90
2019-03-01T03:42:10.923Z,99.90
2019-03-01T03:44:40.007Z,99.90
2019-03-01T03:47:08.943Z,99.90
2019-03-01T03:49:37.866Z,99.90
2019-03-01T03:52:06.815Z,99.90
2019-03-01T03:54:35.804Z,99.90
2019-03-01T03:57:04.860Z,99.90
2019-03-01T03:59:34.466Z,99.90
2019-03-01T04:02:03.483Z,99.90
2019-03-01T04:04:32.599Z,99.90
2019-03-01T04:07:01.599Z,99.90
2019-03-01T04:09:30.561Z,99.90
2019-03-01T04:11:59.496Z,99.90
2019-03-01T04:14:28.608Z,99.90
2019-03-01T04:16:57.517Z,99.90
2019-03-01T04:19:29.375Z,99.90
2019-03-01T04:21:58.345Z,99.90
2019-03-01T04:24:27.259Z,99.90
2019-03-01T04:26:56.241Z,99.90
2019-03-01T04:29:25.201Z,99.90
2019-03-01T04:31:54.156Z,99.90
2019-03-01T04:34:23.115Z,99.90
2019-03-01T04:36:52.171Z,99.90
2019-03-01T04:39:21.121Z,99.90
2019-03-01T04:41:50.102Z,99.90
2019-03-01T04:44:19.007Z,99.90
2019-03-01T04:46:48.015Z,99.90
2019-03-01T04:49:17.039Z,99.90
2019-03-01T04:51:45.981Z,99.90
2019-03-01T04:54:14.897Z,99.90
2019-03-01T04:56:44.027Z,99.90
2019-03-01T04:59:12.930Z,99.90
2019-03-01T05:01:41.898Z,99.90
2019-03-01T05:04:12.168Z,99.90
2019-03-01T05:06:41.250Z,99.90
2019-03-01T05:09:10.175Z,99.90
2019-03-01T05:11:39.148Z,99.90
2019-03-01T05:14:08.089Z,99.90
2019-03-01T05:16:37.068Z,99.90
2019-03-01T05:19:06.111Z,99.90
2019-03-01T05:21:35.047Z,99.90
2019-03-01T05:24:03.979Z,99.90
2019-03-01T05:26:32.950Z,99.90
2019-03-01T05:29:01.901Z,99.90
2019-03-01T05:31:30.856Z,99.90
2019-03-01T05:33:59.788Z,99.90
2019-03-01T05:36:28.759Z,99.90
2019-03-01T05:38:57.754Z,99.90
2019-03-01T05:41:26.733Z,99.90
2019-03-01T05:43:55.798Z,99.90
2019-03-01T05:46:24.759Z,99.90
2019-03-01T05:48:53.701Z,99.90
2019-03-01T05:51:22.687Z,99.90
2019-03-01T05:53:51.643Z,99.90
2019-03-01T05:56:20.607Z,99.90
2019-03-01T05:59:12.045Z,99.90
2019-03-01T06:01:46.282Z,99.90
2019-03-01T06:04:22.123Z,99.90
2019-03-01T06:07:23.704Z,99.90
2019-03-01T06:10:29.844Z,99.90
2019-03-01T06:13:41.877Z,99.90
2019-03-01T06:16:48.758Z,99.90
2019-03-01T06:19:39.876Z,99.90
2019-03-01T06:22:38.770Z,99.90
2019-03-01T06:25:27.273Z,99.90
2019-03-01T06:28:08.397Z,99.90
2019-03-01T06:31:37.048Z,99.90
2019-03-01T06:34:33.901Z,99.90
2019-03-01T06:37:40.241Z,99.90
2019-03-01T06:40:43.264Z,99.90
2019-03-01T06:43:31.719Z,99.90
2019-03-01T06:46:34.908Z,99.90
2019-03-01T06:49:10.356Z,99.90
2019-03-01T06:51:39.293Z,99.90
2019-03-01T06:54:08.308Z,99.90
2019-03-01T06:56:37.389Z,99.90
2019-03-01T06:59:07.602Z,99.90
2019-03-01T07:01:42.590Z,99.90
2019-03-01T07:04:14.698Z,99.90
2019-03-01T07:06:43.704Z,99.90
2019-03-01T07:09:12.746Z,99.90
2019-03-01T07:11:41.722Z,99.90
2019-03-01T07:14:10.748Z,99.90
2019-03-01T07:16:39.759Z,99.90
2019-03-01T07:19:08.802Z,99.90
2019-03-01T07:21:37.662Z,99.90
2019-03-01T07:24:06.751Z,99.90
2019-03-01T07:26:35.627Z,99.90
2019-03-01T07:29:04.581Z,99.90
2019-03-01T07:31:33.534Z,99.90
2019-03-01T07:34:03.504Z,99.90
2019-03-01T07:36:32.530Z,99.90
2019-03-01T07:39:01.527Z,99.90
2019-03-01T07:41:30.462Z,99.90
2019-03-01T07:43:59.431Z,99.90
2019-03-01T07:46:28.463Z,99.90
2019-03-01T07:48:57.426Z,99.90
2019-03-01T07:51:26.953Z,99.90
2019-03-01T07:53:57.046Z,99.90
2019-03-01T07:56:25.987Z,99.90
2019-03-01T07:58:57.498Z,99.90
2019-03-01T08:01:28.806Z,99.90
2019-03-01T08:03:56.829Z,99.90
2019-03-01T08:06:25.739Z,99.90
2019-03-01T08:08:54.667Z,99.90
2019-03-01T08:11:23.615Z,99.90
2019-03-01T08:13:52.930Z,99.90
2019-03-01T08:16:25.164Z,99.90
2019-03-01T08:18:53.544Z,99.90
2019-03-01T08:21:22.524Z,99.90
2019-03-01T08:23:51.454Z,99.90
2019-03-01T08:26:20.763Z,99.90
2019-03-01T08:28:49.647Z,99.90
2019-03-01T08:31:21.095Z,99.90
2019-03-01T08:33:49.135Z,99.90
2019-03-01T08:36:17.921Z,99.90
2019-03-01T08:38:46.736Z,99.90
2019-03-01T08:41:15.537Z,99.90
2019-03-01T08:43:44.748Z,99.90
2019-03-01T08:46:14.935Z,99.90
2019-03-01T08:48:43.808Z,99.90
2019-03-01T08:51:12.686Z,99.90
2019-03-01T08:53:41.500Z,99.90
2019-03-01T08:56:10.943Z,99.90
2019-03-01T08:58:42.507Z,99.90
2019-03-01T09:01:12.448Z,99.90
2019-03-01T09:03:45.375Z,99.90
2019-03-01T09:06:14.355Z,99.90
2019-03-01T09:08:46.226Z,99.90
2019-03-01T09:11:14.309Z,99.90
2019-03-01T09:13:43.206Z,99.90
2019-03-01T09:16:12.318Z,99.90
2019-03-01T09:18:41.220Z,99.90
2019-03-01T09:21:12.969Z,99.90
2019-03-01T09:23:40.642Z,99.90
2019-03-01T09:26:09.437Z,99.90
2019-03-01T09:28:39.608Z,99.90
2019-03-01T09:31:08.982Z,99.90
2019-03-01T09:33:37.913Z,99.90
2019-03-01T09:36:10.660Z,99.90
2019-03-01T09:38:42.692Z,99.90
2019-03-01T09:41:10.168Z,99.90
2019-03-01T09:43:39.132Z,99.90
2019-03-01T09:46:07.958Z,99.90
2019-03-01T09:48:36.769Z,99.90
2019-03-01T09:51:07.268Z,99.90
2019-03-01T09:53:36.111Z,99.90
2019-03-01T09:56:05.070Z,99.90
2019-03-01T09:58:33.945Z,99.90
2019-03-01T10:01:09.484Z,99.90
2019-03-01T10:03:38.463Z,99.90
2019-03-01T10:06:07.417Z,99.90
2019-03-01T10:08:36.285Z,99.90
2019-03-01T10:11:05.198Z,99.90
2019-03-01T10:16:03.133Z,99.90
2019-03-01T10:18:31.988Z,99.90
2019-03-01T10:21:00.832Z,99.90
2019-03-01T10:23:29.734Z,99.90
2019-03-01T10:25:58.635Z,99.90
2019-03-01T10:28:27.505Z,99.90
2019-03-01T10:30:56.311Z,99.90
2019-03-01T10:33:25.284Z,99.90
2019-03-01T10:35:54.091Z,99.90
2019-03-01T10:38:23.039Z,99.90
2019-03-01T10:40:51.950Z,99.90
2019-03-01T10:43:21.205Z,99.90
2019-03-01T10:45:50.675Z,99.90
2019-03-01T10:48:20.205Z,99.90
2019-03-01T10:50:49.096Z,99.90
2019-03-01T10:53:18.699Z,99.90
2019-03-01T10:55:48.370Z,99.90
2019-03-01T10:58:17.196Z,99.90
2019-03-01T11:00:46.480Z,99.90
2019-03-01T11:03:15.536Z,99.90
2019-03-01T11:05:44.464Z,99.90
2019-03-01T11:08:14.183Z,99.90
2019-03-01T11:10:43.138Z,99.90
2019-03-01T11:13:12.939Z,99.90
2019-03-01T11:15:42.279Z,99.90
2019-03-01T11:18:11.986Z,99.90
2019-03-01T11:20:41.748Z,99.90
2019-03-01T11:23:11.067Z,99.90
2019-03-01T11:25:40.123Z,99.90
2019-03-01T11:28:10.479Z,98.60
2019-03-01T11:30:39.651Z,97.40
2019-03-01T11:33:08.690Z,96.00
2019-03-01T11:35:37.642Z,95.50
2019-03-01T11:38:06.687Z,94.10
2019-03-01T11:40:35.797Z,92.90
2019-03-01T11:43:05.607Z,91.00
2019-03-01T11:45:34.483Z,90.20
2019-03-01T11:48:04.032Z,83.20
2019-03-01T11:50:33.091Z,80.10
2019-03-01T11:53:02.245Z,79.10
2019-03-01T11:55:31.395Z,77.40
2019-03-01T11:58:00.574Z,76.60
2019-03-01T12:00:29.803Z,74.40
2019-03-01T12:02:58.742Z,72.60
2019-03-01T12:05:27.737Z,70.30
2019-03-01T12:07:56.639Z,69.30
2019-03-01T12:10:26.443Z,71.70
2019-03-01T12:12:55.426Z,74.40
2019-03-01T12:15:24.469Z,84.00
2019-03-01T12:17:53.580Z,90.50
2019-03-01T12:20:22.781Z,90.70
2019-03-01T12:22:51.641Z,92.40
2019-03-01T12:25:20.539Z,93.00
2019-03-01T12:27:49.365Z,94.30
2019-03-01T12:30:20.124Z,94.80
2019-03-01T12:32:49.223Z,94.40
2019-03-01T12:35:18.187Z,93.80
2019-03-01T12:37:47.297Z,92.40
2019-03-01T12:40:36.634Z,92.20
2019-03-01T12:43:05.656Z,90.50
2019-03-01T12:45:34.729Z,89.70
2019-03-01T12:48:03.839Z,90.90
2019-03-01T12:50:32.691Z,83.60
2019-03-01T12:53:01.619Z,78.80
2019-03-01T12:55:30.732Z,77.90
2019-03-01T12:57:59.648Z,71.90
2019-03-01T13:00:30.086Z,73.90
2019-03-01T13:02:58.942Z,73.90
2019-03-01T13:05:29.404Z,69.90
2019-03-01T13:07:58.570Z,73.30
2019-03-01T13:10:28.351Z,74.30
2019-03-01T13:12:58.714Z,74.50
2019-03-01T13:15:28.009Z,73.40
2019-03-01T13:17:56.994Z,72.50
2019-03-01T13:20:27.312Z,71.20
2019-03-01T13:23:00.820Z,70.30
2019-03-01T13:25:29.515Z,72.90
2019-03-01T13:27:59.175Z,72.10
2019-03-01T13:30:28.174Z,76.20
2019-03-01T13:32:58.992Z,77.90
2019-03-01T13:35:27.695Z,78.80
2019-03-01T13:37:56.773Z,78.00
2019-03-01T13:40:25.890Z,79.30
2019-03-01T13:42:54.803Z,82.60
2019-03-01T13:45:23.776Z,84.80
2019-03-01T13:47:52.703Z,87.80
2019-03-01T13:50:21.933Z,90.20
2019-03-01T13:52:51.660Z,91.20
2019-03-01T13:55:40.474Z,91.40
2019-03-01T13:58:09.383Z,91.80
2019-03-01T14:00:38.302Z,92.20
2019-03-01T14:03:07.263Z,91.50
2019-03-01T14:05:36.205Z,91.70
2019-03-01T14:08:08.927Z,90.90
2019-03-01T14:10:38.536Z,91.50
2019-03-01T14:13:06.681Z,91.00
2019-03-01T14:15:38.443Z,90.70
2019-03-01T14:18:06.563Z,91.00
2019-03-01T14:20:35.515Z,90.90
2019-03-01T14:23:04.562Z,89.20
2019-03-01T14:25:33.491Z,89.50
2019-03-01T14:28:05.144Z,90.10
2019-03-01T14:30:33.411Z,89.60
2019-03-01T14:33:02.487Z,90.50
2019-03-01T14:35:31.417Z,88.10
2019-03-01T14:38:00.432Z,83.00
2019-03-01T14:40:29.406Z,83.90
2019-03-01T14:42:58.250Z,82.50
2019-03-01T14:45:27.161Z,82.40
2019-03-01T14:47:56.131Z,80.30
2019-03-01T14:50:25.431Z,79.90
2019-03-01T14:52:58.425Z,80.00
2019-03-01T14:55:34.340Z,79.70
2019-03-01T14:58:10.404Z,82.90
2019-03-01T15:00:50.961Z,85.60
2019-03-01T15:03:37.768Z,86.70
2019-03-01T15:06:08.400Z,87.90
2019-03-01T15:08:44.258Z,88.80
2019-03-01T15:11:22.352Z,88.50
2019-03-01T15:13:52.992Z,88.90
2019-03-01T15:16:22.001Z,89.00
2019-03-01T15:18:50.901Z,89.10
2019-03-01T15:21:19.858Z,88.90
2019-03-01T15:23:48.755Z,89.40
2019-03-01T15:26:17.593Z,88.20
2019-03-01T15:28:53.965Z,89.40
2019-03-01T15:31:19.484Z,88.40
2019-03-01T15:33:48.648Z,88.80
2019-03-01T15:36:19.063Z,88.30
2019-03-01T15:38:49.297Z,89.00
2019-03-01T15:41:18.929Z,90.10
2019-03-01T15:43:48.246Z,90.70
2019-03-01T15:46:18.222Z,90.80
2019-03-01T15:48:47.997Z,90.80
2019-03-01T15:51:17.745Z,91.00
2019-03-01T15:53:47.322Z,91.10
2019-03-01T15:56:17.077Z,91.30
2019-03-01T15:58:46.671Z,90.80
2019-03-01T16:01:16.967Z,91.30
2019-03-01T16:03:46.748Z,91.10
2019-03-01T16:06:19.233Z,91.50
2019-03-01T16:08:48.119Z,91.50
2019-03-01T16:11:17.958Z,91.50
2019-03-01T16:13:49.102Z,91.60
2019-03-01T16:16:17.981Z,91.80
2019-03-01T16:18:47.118Z,91.60
2019-03-01T16:21:17.069Z,91.80
2019-03-01T16:23:46.323Z,91.80
2019-03-01T16:26:16.254Z,91.50
2019-03-01T16:28:45.907Z,91.50
2019-03-01T16:31:15.634Z,92.00
2019-03-01T16:33:45.389Z,91.60
2019-03-01T16:36:30.240Z,91.10
2019-03-01T16:38:59.781Z,91.50
2019-03-01T16:41:28.734Z,91.40
2019-03-01T16:43:57.646Z,91.60
2019-03-01T16:46:28.501Z,91.40
2019-03-01T16:48:57.204Z,92.20
2019-03-01T16:51:26.278Z,91.90
2019-03-01T16:53:55.150Z,91.70
2019-03-01T16:56:24.062Z,91.60
2019-03-01T16:58:52.889Z,91.30
2019-03-01T17:01:21.858Z,91.40
2019-03-01T17:03:52.765Z,91.30
2019-03-01T17:06:21.437Z,91.50
2019-03-01T17:08:50.371Z,91.40
2019-03-01T17:11:19.292Z,91.40
2019-03-01T17:13:48.279Z,91.50
2019-03-01T17:16:20.361Z,92.10
2019-03-01T17:18:48.569Z,91.90
2019-03-01T17:21:17.768Z,91.30
2019-03-01T17:23:46.647Z,90.90
2019-03-01T17:26:15.508Z,91.60
2019-03-01T17:28:44.758Z,90.00
2019-03-01T17:31:13.659Z,90.10
2019-03-01T17:33:45.154Z,88.40
2019-03-01T17:36:16.762Z,87.40
2019-03-01T17:38:46.069Z,85.50
2019-03-01T17:41:15.155Z,84.60
2019-03-01T17:43:44.029Z,84.00
2019-03-01T17:46:13.279Z,83.20
2019-03-01T17:48:42.309Z,83.40
2019-03-01T17:51:13.479Z,82.50
2019-03-01T17:53:43.089Z,81.10
2019-03-01T17:56:12.827Z,80.00
2019-03-01T17:58:41.790Z,79.30
2019-03-01T18:01:10.684Z,78.60
2019-03-01T18:03:39.476Z,79.50
2019-03-01T18:06:08.266Z,77.90
2019-03-01T18:08:39.649Z,78.40
2019-03-01T18:11:08.608Z,77.40
2019-03-01T18:13:38.354Z,77.70
2019-03-01T18:16:07.290Z,74.90
2019-03-01T18:18:36.206Z,74.10
2019-03-01T18:21:05.172Z,72.50
2019-03-01T18:23:37.924Z,71.70
2019-03-01T18:26:05.746Z,71.50
2019-03-01T18:28:34.579Z,70.60
2019-03-01T18:31:03.459Z,69.20
2019-03-01T18:33:32.372Z,67.90
2019-03-01T18:36:01.211Z,66.60
2019-03-01T18:38:31.255Z,67.00
2019-03-01T18:41:01.430Z,67.20
2019-03-01T18:43:30.333Z,67.30
2019-03-01T18:45:59.193Z,66.90
2019-03-01T18:48:27.986Z,67.50
2019-03-01T18:50:56.811Z,67.40
2019-03-01T18:53:28.797Z,66.90
2019-03-01T18:55:56.232Z,66.30
2019-03-01T18:58:25.170Z,66.00
2019-03-01T19:00:54.062Z,67.30
2019-03-01T19:03:22.909Z,63.90
2019-03-01T19:05:52.390Z,64.00
2019-03-01T19:08:21.205Z,62.40
2019-03-01T19:10:54.156Z,60.80
2019-03-01T19:13:24.202Z,61.20
2019-03-01T19:15:54.300Z,58.50
2019-03-01T19:18:21.998Z,57.10
2019-03-01T19:20:51.313Z,55.80
2019-03-01T19:23:20.190Z,56.40
2019-03-01T19:25:49.146Z,57.40
2019-03-01T19:28:19.159Z,57.40
2019-03-01T19:30:49.257Z,57.70
2019-03-01T19:33:18.889Z,58.60
2019-03-01T19:35:47.767Z,58.80
2019-03-01T19:38:16.575Z,57.60
2019-03-01T19:40:46.951Z,56.60
2019-03-01T19:43:16.260Z,55.80
2019-03-01T19:45:45.178Z,57.20
2019-03-01T19:48:14.091Z,55.80
2019-03-01T19:50:43.548Z,55.60
2019-03-01T19:53:15.922Z,55.40
2019-03-01T19:55:47.245Z,56.90
2019-03-01T19:58:16.784Z,55.20
2019-03-01T20:00:46.546Z,53.30
2019-03-01T20:03:15.429Z,55.60
2019-03-01T20:05:44.223Z,54.80
2019-03-01T20:08:13.049Z,54.50
2019-03-01T20:10:41.917Z,53.80
2019-03-01T20:13:13.011Z,54.10
2019-03-01T20:15:42.768Z,53.10
2019-03-01T20:18:13.270Z,52.50
2019-03-01T20:20:42.082Z,54.00
2019-03-01T20:23:10.957Z,53.90
2019-03-01T20:25:39.810Z,51.10
2019-03-01T20:28:11.574Z,49.60
2019-03-01T20:30:39.248Z,42.20
2019-03-01T20:33:08.066Z,42.30
2019-03-01T20:35:36.943Z,42.60
2019-03-01T20:38:05.736Z,44.10
2019-03-01T20:40:34.619Z,44.70
2019-03-01T20:43:06.817Z,44.80
2019-03-01T20:45:34.887Z,43.30
2019-03-01T20:48:05.325Z,41.40
2019-03-01T20:50:36.415Z,41.50
2019-03-01T20:53:05.126Z,41.90
2019-03-01T20:55:37.122Z,43.20
2019-03-01T20:58:04.691Z,40.90
2019-03-01T21:00:33.866Z,40.40
2019-03-01T21:03:03.074Z,41.00
2019-03-01T21:05:32.121Z,42.30
2019-03-01T21:08:01.045Z,43.60
2019-03-01T21:10:31.270Z,44.60
2019-03-01T21:13:00.289Z,45.40
2019-03-01T21:15:29.159Z,45.60
2019-03-01T21:18:00.342Z,47.60
2019-03-01T21:20:29.242Z,47.30
2019-03-01T21:22:58.163Z,47.60
2019-03-01T21:25:27.103Z,48.00
2019-03-01T21:27:57.524Z,47.70
2019-03-01T21:30:27.261Z,48.20
2019-03-01T21:32:56.261Z,49.80
2019-03-01T21:35:25.158Z,49.50
2019-03-01T21:37:54.366Z,49.20
2019-03-01T21:40:23.462Z,49.50
2019-03-01T21:42:57.294Z,49.10
2019-03-01T21:45:23.143Z,50.00
2019-03-01T21:47:55.186Z,51.50
2019-03-01T21:50:24.184Z,53.30
2019-03-01T21:52:53.220Z,52.70
2019-03-01T21:55:25.019Z,51.60
2019-03-01T21:57:52.756Z,50.20
2019-03-01T22:00:25.242Z,49.00
2019-03-01T22:02:54.297Z,46.40
2019-03-01T22:05:23.691Z,45.60
2019-03-01T22:07:53.102Z,44.70
2019-03-01T22:10:22.223Z,41.30
2019-03-01T22:12:51.307Z,38.00
2019-03-01T22:15:25.509Z,36.50
2019-03-01T22:17:55.111Z,36.90
2019-03-01T22:20:24.110Z,38.20
2019-03-01T22:22:53.015Z,39.10
2019-03-01T22:25:21.994Z,41.20
2019-03-01T22:27:50.802Z,41.20
2019-03-01T22:30:23.827Z,43.40
2019-03-01T22:32:52.822Z,44.60
2019-03-01T22:35:22.713Z,46.90
2019-03-01T22:37:51.659Z,45.80
2019-03-01T22:40:23.981Z,45.20
2019-03-01T22:42:51.188Z,46.60
2019-03-01T22:45:20.073Z,47.60
2019-03-01T22:47:50.001Z,48.90
2019-03-01T22:50:19.958Z,48.50
2019-03-01T22:52:48.846Z,48.80
2019-03-01T22:55:17.789Z,49.70
2019-03-01T22:57:46.722Z,50.90
2019-03-01T23:01:02.947Z,50.70
2019-03-01T23:03:31.854Z,52.50
2019-03-01T23:06:00.767Z,52.40
2019-03-01T23:08:31.776Z,52.70
2019-03-01T23:11:00.089Z,53.90
2019-03-01T23:13:28.974Z,55.20
2019-03-01T23:15:57.793Z,55.20
2019-03-01T23:18:28.844Z,55.50
2019-03-01T23:21:00.949Z,55.70
2019-03-01T23:23:28.211Z,56.80
2019-03-01T23:25:57.083Z,57.40
2019-03-01T23:28:26.726Z,57.40
2019-03-01T23:30:56.373Z,57.00
2019-03-01T23:33:27.755Z,56.90
2019-03-01T23:35:57.728Z,57.60
2019-03-01T23:38:27.435Z,57.10
2019-03-01T23:40:56.903Z,55.60
2019-03-01T23:43:27.583Z,54.10
2019-03-01T23:45:57.779Z,50.50
2019-03-01T23:48:28.417Z,50.30
2019-03-01T23:50:57.977Z,50.60
2019-03-01T23:53:34.081Z,51.20
2019-03-01T23:56:04.082Z,51.10
2019-03-01T23:58:33.653Z,50.40
